createdAt,value
2022-10-01T00:38:28.462Z,13.3
2022-10-01T01:08:30.012Z,12.3
2022-10-01T01:18:30.407Z,11.7
2022-10-01T01:48:31.260Z,11.1
2022-10-01T01:58:32.220Z,11
2022-10-01T02:08:32.732Z,10.9
2022-10-01T02:18:33.384Z,10.7
2022-10-01T02:28:33.959Z,10.6
2022-10-01T02:38:34.217Z,10.6
2022-10-01T02:58:35.074Z,10.5
2022-10-01T03:08:35.634Z,10.5
2022-10-01T03:18:35.820Z,10.5
2022-10-01T03:38:36.483Z,10.4
2022-10-01T03:58:37.520Z,10.4
2022-10-01T04:08:38.040Z,10.4
2022-10-01T04:18:45.607Z,10.4
2022-10-01T04:28:38.956Z,10.5
2022-10-01T04:38:39.973Z,10.5
2022-10-01T04:48:40.856Z,10.6
2022-10-01T04:58:41.335Z,10.7
2022-10-01T05:08:41.389Z,10.8
2022-10-01T05:18:41.865Z,10.9
2022-10-01T05:28:42.791Z,11
2022-10-01T05:38:42.948Z,11
2022-10-01T05:48:43.330Z,11
2022-10-01T05:58:44.225Z,11
2022-10-01T06:08:44.598Z,11
2022-10-01T06:18:44.749Z,11.1
2022-10-01T06:38:45.935Z,11.1
2022-10-01T06:48:46.074Z,11.2
2022-10-01T06:58:46.619Z,11.3
2022-10-01T07:18:48.153Z,11.4
2022-10-01T07:38:49.339Z,11.5
2022-10-01T07:48:49.376Z,11.6
2022-10-01T07:58:49.624Z,11.8
2022-10-01T08:08:49.928Z,11.9
2022-10-01T08:28:51.233Z,12.5
2022-10-01T08:38:51.389Z,12.9
2022-10-01T08:48:56.168Z,13
2022-10-01T08:58:52.014Z,13.1
2022-10-01T09:08:52.382Z,13.6
2022-10-01T09:18:52.692Z,13.7
2022-10-01T09:28:53.195Z,13.9
2022-10-01T09:38:53.574Z,14.2
2022-10-01T09:48:53.823Z,14.3
2022-10-01T10:08:54.598Z,14.2
2022-10-01T10:18:55.340Z,14.2
2022-10-01T10:38:56.221Z,14.5
2022-10-01T10:48:56.897Z,14.9
2022-10-01T10:58:57.451Z,15.2
2022-10-01T11:08:57.515Z,15.7
2022-10-01T11:18:58.069Z,15.7
2022-10-01T11:38:59.489Z,16
2022-10-01T12:29:01.139Z,11.9
2022-10-01T12:49:08.709Z,12.7
2022-10-01T12:59:01.784Z,13.2
2022-10-01T13:09:02.256Z,13.3
2022-10-01T13:19:02.405Z,13.7
2022-10-01T13:29:09.958Z,14.5
2022-10-01T13:39:03.321Z,14.9
2022-10-01T13:49:04.301Z,14.8
2022-10-01T14:09:05.282Z,15.8
2022-10-01T14:19:06.153Z,16
2022-10-01T14:39:07.096Z,15.6
2022-10-01T14:49:07.129Z,15.4
2022-10-01T15:09:08.110Z,15.6
2022-10-01T15:19:08.101Z,15.8
2022-10-01T15:29:09.014Z,15.9
2022-10-01T15:39:09.757Z,15.8
2022-10-01T15:49:10.052Z,15.7
2022-10-01T15:59:10.555Z,15.5
2022-10-01T16:09:11.009Z,15.5
2022-10-01T16:19:11.859Z,15.3
2022-10-01T16:29:12.272Z,15.2
2022-10-01T16:39:12.919Z,15.1
2022-10-01T16:49:13.318Z,15
2022-10-01T16:59:13.494Z,14.8
2022-10-01T17:09:13.674Z,14.4
2022-10-01T17:19:13.972Z,14.2
2022-10-01T17:29:14.745Z,13.9
2022-10-01T17:39:15.134Z,13.6
2022-10-01T17:49:15.575Z,13.4
2022-10-01T17:59:16.236Z,13.2
2022-10-01T18:09:16.952Z,13.1
2022-10-01T18:19:52.187Z,13.5
2022-10-01T18:29:17.684Z,13.5
2022-10-01T18:39:18.106Z,13.3
2022-10-01T18:49:18.830Z,13.2
2022-10-01T18:59:19.148Z,13.1
2022-10-01T19:09:19.256Z,13.1
2022-10-01T19:19:19.593Z,13.2
2022-10-01T19:29:19.958Z,13.3
2022-10-01T19:59:20.824Z,13.2
2022-10-01T20:09:21.226Z,13
2022-10-01T20:19:21.678Z,13
2022-10-01T20:29:22.072Z,12.7
2022-10-01T20:39:23.038Z,12.6
2022-10-01T20:59:24.227Z,12.2
2022-10-01T21:19:25.555Z,11.8
2022-10-01T21:29:26.145Z,11.7
2022-10-01T21:39:26.783Z,11.7
2022-10-01T21:49:27.296Z,11.6
2022-10-01T21:59:27.486Z,11.5
2022-10-01T22:19:29.236Z,11.5
2022-10-01T22:29:30.121Z,11.4
2022-10-01T22:39:30.560Z,11.4
2022-10-01T22:49:31.360Z,11.4
2022-10-01T22:59:31.675Z,11.6
2022-10-01T23:09:32.158Z,11.8
2022-10-01T23:19:32.715Z,11.7
2022-10-01T23:29:33.601Z,12
2022-10-01T23:39:34.408Z,12.1
2022-10-01T23:39:39.687Z,12.2
2022-10-01T23:49:40.067Z,12.1
2022-10-01T23:59:40.679Z,12.1
